Terminal Aerodrome Forecast
Issued by NWS Twin Cities, MN

Home | Current Version | Previous Version | Text Only | Print | Product List | Glossary Off
Versions: 1 2 3 4 5 6 7 8 9 10 11 12 13 14 15 16 17 18 19

000
FTUS43 KMPX 031120
TAFSTC
TAF
KSTC 031120Z 0312/0412 18008KT P6SM SCT080
     FM031500 26008KT P6SM SCT090
     FM031800 31010KT P6SM VCSH SCT040 BKN090
     FM032000 33012G20KT P6SM BKN060
     FM040100 35006KT P6SM SKC=

USA.gov is the U.S. government's official web portal to all federal, state and local government web resources and services.